Filbert, West Virginia
Current Conditions -  °F | °C
As of 11:52 PM on Friday 24 Oct 2014 (Local Time) from KBLF Reporting Station
Clear Clear  
Wind Chill: 40°   Ceiling: Unl
Heat Index: 44°   Visibility: 10mi
Dew Point: 36°   Wind: 8mph
Humidity: 73%   Direction: 260°W
Pressure: 30.09"   Gusts: NA
Location:  37.3352°N, 81.5394°W
Report Text: KBLF 250352Z AUTO 26007KT 10SM CLR 07/02 A3009 RMK AO2 SLP180 T00670022
Loading
Personal Weather Stations






























Interactive Weather Map
Tropical Storm Tracking
New forecast layout! Learn more

10-Day Weather Forecast

Advertisements
Track Severe Weather on mobile